Time;durP1;ratioP1;P1;durP2;ratioP2;P2;SDS_P1;SDS_P2;PMS_P1;PMS_P2;Temp;Humidity;BMP_temperature;BMP_pressure;BME280_temperature;BME280_humidity;BME280_pressure;Samples;Min_cycle;Max_cycle;Signal;HPM_P1;HPM_P2
2021/06/16 00:00:07;;;;;;;3.22;1.40;;;17.70;65.90;;;;;;3570176;40;20101;-64
2021/06/16 00:02:38;;;;;;;3.03;1.20;;;17.70;65.80;;;;;;3579630;40;20064;-64
2021/06/16 00:05:12;;;;;;;4.15;1.50;;;17.60;66.20;;;;;;3579937;40;20036;-64
2021/06/16 00:07:38;;;;;;;3.22;1.30;;;17.60;65.50;;;;;;3579882;40;20043;-64
2021/06/16 00:10:06;;;;;;;5.72;1.30;;;17.60;65.10;;;;;;3580346;40;20029;-64
2021/06/16 00:12:32;;;;;;;2.70;1.33;;;17.50;64.20;;;;;;3580171;40;20158;-64
2021/06/16 00:14:58;;;;;;;2.10;1.23;;;17.50;64.40;;;;;;3580505;40;20403;-64
2021/06/16 00:17:24;;;;;;;4.20;1.45;;;17.50;66.10;;;;;;3580115;40;20043;-63
2021/06/16 00:19:49;;;;;;;7.95;1.35;;;17.40;65.60;;;;;;3579829;40;20162;-64
2021/06/16 00:22:15;;;;;;;3.92;1.50;;;17.40;65.10;;;;;;3580059;40;20431;-64
2021/06/16 00:24:41;;;;;;;2.17;1.00;;;17.40;64.90;;;;;;3570057;40;20065;-64
2021/06/16 00:27:07;;;;;;;2.63;1.20;;;17.40;64.90;;;;;;3570462;40;20040;-64
2021/06/16 00:29:33;;;;;;;5.15;1.80;;;17.30;64.30;;;;;;3561642;40;20025;-64
2021/06/16 00:31:59;;;;;;;5.35;1.60;;;17.30;64.00;;;;;;3580176;40;20028;-64
2021/06/16 00:34:25;;;;;;;4.18;1.10;;;17.30;64.70;;;;;;3579522;40;20421;-64
2021/06/16 00:36:51;;;;;;;5.00;1.60;;;17.30;64.50;;;;;;3570223;40;20047;-64
2021/06/16 00:39:17;;;;;;;5.30;1.42;;;17.30;64.80;;;;;;3579665;40;20040;-64
2021/06/16 00:41:44;;;;;;;2.60;1.20;;;17.20;64.80;;;;;;3579585;40;20057;-64
2021/06/16 00:44:10;;;;;;;3.33;1.25;;;17.20;64.00;;;;;;3575832;40;20033;-64
2021/06/16 00:46:36;;;;;;;4.43;1.40;;;17.20;64.00;;;;;;3578744;40;20025;-64
2021/06/16 00:49:03;;;;;;;5.25;1.55;;;17.20;64.40;;;;;;3579560;40;20032;-64
2021/06/16 00:51:29;;;;;;;3.55;1.50;;;17.20;63.50;;;;;;3578937;40;20065;-64
2021/06/16 00:53:55;;;;;;;2.88;1.08;;;17.20;63.80;;;;;;3569970;40;20035;-64
2021/06/16 00:56:20;;;;;;;5.13;1.63;;;17.10;64.10;;;;;;3579580;40;20036;-64
2021/06/16 00:58:46;;;;;;;4.00;1.45;;;17.10;64.10;;;;;;3579709;40;20069;-64
2021/06/16 01:01:27;;;;;;;4.45;1.30;;;17.10;64.40;;;;;;3579624;40;20072;-64
2021/06/16 01:03:59;;;;;;;3.58;1.35;;;17.00;64.10;;;;;;3575659;40;20467;-64
2021/06/16 01:06:47;;;;;;;4.45;1.02;;;17.00;64.20;;;;;;3579171;40;20044;-64
2021/06/16 01:09:32;;;;;;;3.15;1.10;;;16.90;63.90;;;;;;3577827;40;20037;-64
2021/06/16 01:12:07;;;;;;;4.20;1.42;;;16.90;64.30;;;;;;3579578;40;20059;-64
2021/06/16 01:14:43;;;;;;;2.25;1.27;;;16.90;64.50;;;;;;3579953;40;20141;-64
2021/06/16 01:17:11;;;;;;;4.82;1.27;;;16.90;64.60;;;;;;3578345;40;20028;-64
2021/06/16 01:20:01;;;;;;;2.97;1.20;;;16.80;64.80;;;;;;3578955;40;20068;-64
2021/06/16 01:22:59;;;;;;;3.40;1.20;;;16.80;65.00;;;;;;3579192;40;20496;-64
2021/06/16 01:25:34;;;;;;;2.78;1.23;;;16.80;65.30;;;;;;3579156;40;20040;-63
2021/06/16 01:28:00;;;;;;;1.88;1.20;;;16.70;65.70;;;;;;3577568;40;20024;-64
2021/06/16 01:30:29;;;;;;;3.28;1.40;;;16.60;66.00;;;;;;3578656;40;20504;-64
2021/06/16 01:32:56;;;;;;;3.42;1.30;;;16.60;65.60;;;;;;3578439;40;20024;-64
2021/06/16 01:35:25;;;;;;;2.08;1.20;;;16.50;65.90;;;;;;3578434;40;20528;-64
2021/06/16 01:37:51;;;;;;;3.17;1.38;;;16.50;66.10;;;;;;3578964;40;20044;-64
2021/06/16 01:40:18;;;;;;;3.95;1.30;;;16.50;65.50;;;;;;3578506;40;20035;-64
2021/06/16 01:42:45;;;;;;;4.70;1.40;;;16.50;66.20;;;;;;3579491;40;20036;-64
2021/06/16 01:45:12;;;;;;;2.40;1.48;;;16.50;65.90;;;;;;3579052;40;20072;-64
2021/06/16 01:47:38;;;;;;;2.40;1.40;;;16.40;65.80;;;;;;3579047;40;20492;-63
2021/06/16 01:50:05;;;;;;;5.32;1.77;;;16.40;65.30;;;;;;3579263;40;20036;-64
2021/06/16 01:52:34;;;;;;;1.65;1.00;;;16.40;65.40;;;;;;3577510;40;20032;-64
2021/06/16 01:55:01;;;;;;;4.93;1.20;;;16.40;66.10;;;;;;3579230;40;20059;-63
2021/06/16 01:57:27;;;;;;;2.47;1.33;;;16.40;66.40;;;;;;3575858;40;20087;-64
2021/06/16 01:59:56;;;;;;;2.10;1.20;;;16.30;65.40;;;;;;3578738;40;20809;-64
2021/06/16 02:02:22;;;;;;;4.38;1.20;;;16.30;65.30;;;;;;3579004;40;20826;-63
2021/06/16 02:04:47;;;;;;;3.83;1.05;;;16.20;66.10;;;;;;3578815;40;20048;-64
2021/06/16 02:07:17;;;;;;;2.65;1.20;;;16.20;65.40;;;;;;3569351;40;20025;-63
2021/06/16 02:09:44;;;;;;;3.60;1.35;;;16.20;66.50;;;;;;3577975;40;20028;-63
2021/06/16 02:12:14;;;;;;;4.13;1.58;;;16.20;65.20;;;;;;3578667;40;20036;-64
2021/06/16 02:14:59;;;;;;;2.38;1.30;;;16.20;65.70;;;;;;3578452;40;20029;-64
2021/06/16 02:17:29;;;;;;;1.73;1.30;;;16.10;65.80;;;;;;3566122;40;20036;-63
2021/06/16 02:19:55;;;;;;;3.42;1.25;;;16.10;66.40;;;;;;3578807;40;20028;-64
2021/06/16 02:22:24;;;;;;;2.33;1.33;;;16.00;66.10;;;;;;3579153;40;20071;-64
2021/06/16 02:24:51;;;;;;;1.75;1.20;;;16.00;66.50;;;;;;3578735;40;20346;-64
2021/06/16 02:27:17;;;;;;;3.22;1.15;;;16.00;66.00;;;;;;3569945;40;20042;-64
2021/06/16 02:29:42;;;;;;;2.97;1.38;;;16.00;65.90;;;;;;3580530;40;20021;-65
2021/06/16 02:32:08;;;;;;;4.47;1.23;;;16.00;66.30;;;;;;3580476;40;20029;-63
2021/06/16 02:34:34;;;;;;;2.53;1.20;;;15.80;65.90;;;;;;3580645;40;20074;-64
2021/06/16 02:37:04;;;;;;;3.40;1.10;;;15.80;66.30;;;;;;3580677;40;20036;-63
2021/06/16 02:39:44;;;;;;;3.92;1.40;;;15.80;65.80;;;;;;3581168;40;20916;-63
2021/06/16 02:42:10;;;;;;;2.70;1.35;;;15.70;65.90;;;;;;3579685;40;20325;-63
2021/06/16 02:44:41;;;;;;;3.60;1.30;;;15.80;66.90;;;;;;3580243;40;20028;-63
2021/06/16 02:47:08;;;;;;;1.52;0.90;;;15.80;66.80;;;;;;3580136;40;20025;-64
2021/06/16 02:49:38;;;;;;;4.18;1.30;;;15.70;66.40;;;;;;3580065;40;20369;-63
2021/06/16 02:52:07;;;;;;;2.63;1.30;;;15.70;66.50;;;;;;3579753;40;20029;-64
2021/06/16 02:54:35;;;;;;;2.92;1.38;;;15.70;66.40;;;;;;3579580;40;20028;-64
2021/06/16 02:57:02;;;;;;;2.88;1.00;;;15.70;65.40;;;;;;3579742;40;20032;-64
2021/06/16 02:59:30;;;;;;;4.80;1.38;;;15.80;66.40;;;;;;3579804;40;20083;-64
2021/06/16 03:01:56;;;;;;;2.55;1.13;;;15.70;65.80;;;;;;3579388;40;20033;-64
2021/06/16 03:04:23;;;;;;;6.35;1.63;;;15.70;66.50;;;;;;3579942;40;20021;-64
2021/06/16 03:06:50;;;;;;;1.92;0.90;;;15.70;66.00;;;;;;3574978;40;20044;-64
2021/06/16 03:09:19;;;;;;;3.20;1.38;;;15.70;66.00;;;;;;3579654;40;20020;-64
2021/06/16 03:11:46;;;;;;;2.90;1.52;;;15.70;66.20;;;;;;3579432;40;20055;-64
2021/06/16 03:14:12;;;;;;;3.60;1.40;;;15.70;66.30;;;;;;3579565;40;20060;-64
2021/06/16 03:16:40;;;;;;;0.88;0.88;;;15.70;66.80;;;;;;3578665;40;20294;-63
2021/06/16 03:19:06;;;;;;;2.38;1.30;;;15.70;66.60;;;;;;3580156;40;20047;-64
2021/06/16 03:21:34;;;;;;;2.85;1.08;;;15.70;66.50;;;;;;3580383;40;20314;-63
2021/06/16 03:24:00;;;;;;;6.15;1.52;;;15.70;66.50;;;;;;3580209;40;20085;-64
2021/06/16 03:26:27;;;;;;;3.03;1.20;;;15.70;66.80;;;;;;3580448;40;20288;-64
2021/06/16 03:28:55;;;;;;;2.20;1.02;;;15.70;66.70;;;;;;3580678;40;20048;-63
2021/06/16 03:31:21;;;;;;;3.75;1.35;;;15.70;66.60;;;;;;3579378;40;20035;-63
2021/06/16 03:33:48;;;;;;;4.28;1.30;;;15.70;66.00;;;;;;3580832;40;20025;-63
2021/06/16 03:36:16;;;;;;;1.98;1.00;;;15.70;66.30;;;;;;3580423;40;20028;-64
2021/06/16 03:38:43;;;;;;;1.38;1.17;;;15.70;65.80;;;;;;3574119;40;20066;-64
2021/06/16 03:41:10;;;;;;;4.13;1.38;;;15.70;66.10;;;;;;3579789;40;20126;-64
2021/06/16 03:43:38;;;;;;;2.20;1.23;;;15.70;66.50;;;;;;3579506;40;20048;-63
2021/06/16 03:46:06;;;;;;;2.95;1.20;;;15.80;65.90;;;;;;3576057;40;20094;-63
2021/06/16 03:48:33;;;;;;;4.07;1.00;;;15.80;65.90;;;;;;3579495;40;20977;-63
2021/06/16 03:50:59;;;;;;;2.97;1.38;;;15.80;66.70;;;;;;3579328;40;20036;-64
2021/06/16 03:53:25;;;;;;;2.38;1.27;;;15.80;65.70;;;;;;3570004;40;20409;-64
2021/06/16 03:55:51;;;;;;;3.60;1.10;;;15.80;66.10;;;;;;3566922;40;20032;-64
2021/06/16 03:58:18;;;;;;;3.22;1.30;;;15.80;66.20;;;;;;3576153;40;20039;-64
2021/06/16 04:00:44;;;;;;;2.20;1.00;;;15.80;65.80;;;;;;3573628;40;20020;-63
2021/06/16 04:03:11;;;;;;;3.97;1.30;;;15.90;66.60;;;;;;3580056;40;20040;-63
2021/06/16 04:05:37;;;;;;;2.80;1.13;;;15.90;67.20;;;;;;3580333;40;20095;-66
2021/06/16 04:08:05;;;;;;;2.17;0.90;;;15.90;66.80;;;;;;3579596;40;20036;-66
2021/06/16 04:10:31;;;;;;;2.88;1.50;;;15.90;66.40;;;;;;3580099;40;20028;-66
2021/06/16 04:12:57;;;;;;;2.97;1.15;;;16.00;66.70;;;;;;3580121;40;20047;-66
2021/06/16 04:15:23;;;;;;;1.92;1.20;;;16.00;66.80;;;;;;3578197;40;20402;-67
2021/06/16 04:17:49;;;;;;;1.85;1.20;;;16.00;67.40;;;;;;3580611;40;20039;-66
2021/06/16 04:20:17;;;;;;;1.45;1.25;;;16.10;65.50;;;;;;3580348;40;20029;-66
2021/06/16 04:22:43;;;;;;;2.38;1.30;;;16.20;65.40;;;;;;3580808;40;20029;-66
2021/06/16 04:25:10;;;;;;;2.35;1.10;;;16.20;65.00;;;;;;3580835;40;20734;-65
2021/06/16 04:27:36;;;;;;;2.28;1.25;;;16.30;65.80;;;;;;3580251;40;20339;-65
2021/06/16 04:30:05;;;;;;;4.53;1.25;;;16.30;66.20;;;;;;3579965;40;20099;-66
2021/06/16 04:32:31;;;;;;;2.38;1.00;;;16.30;65.30;;;;;;3577452;40;20052;-66
2021/06/16 04:34:56;;;;;;;3.92;1.38;;;16.30;65.50;;;;;;3580153;40;20784;-64
2021/06/16 04:37:22;;;;;;;4.35;1.10;;;16.30;66.20;;;;;;3579647;40;20054;-66
2021/06/16 04:39:48;;;;;;;1.30;1.00;;;16.30;66.20;;;;;;3580006;40;20036;-66
2021/06/16 04:42:14;;;;;;;1.10;1.00;;;16.30;66.10;;;;;;3580208;40;20088;-66
2021/06/16 04:44:39;;;;;;;5.45;1.25;;;16.30;66.00;;;;;;3579375;40;20044;-66
2021/06/16 04:47:05;;;;;;;2.47;1.20;;;16.30;65.80;;;;;;3578721;40;20140;-67
2021/06/16 04:49:32;;;;;;;3.75;1.48;;;16.30;66.00;;;;;;3578987;40;20028;-66
2021/06/16 04:51:58;;;;;;;4.35;1.25;;;16.30;67.50;;;;;;3579204;40;20128;-66
2021/06/16 04:54:24;;;;;;;4.07;1.40;;;16.30;66.50;;;;;;3579647;40;20036;-66
2021/06/16 04:56:49;;;;;;;1.35;1.10;;;16.30;66.00;;;;;;3579858;40;20831;-66
2021/06/16 04:59:15;;;;;;;3.78;1.30;;;16.30;66.70;;;;;;3579889;40;20037;-68
2021/06/16 05:01:41;;;;;;;1.88;1.20;;;16.30;66.40;;;;;;3579529;40;20567;-66
2021/06/16 05:04:06;;;;;;;2.67;1.30;;;16.30;66.40;;;;;;3579979;40;20725;-66
2021/06/16 05:06:32;;;;;;;3.20;1.48;;;16.40;66.50;;;;;;3580034;40;20041;-66
2021/06/16 05:08:58;;;;;;;2.42;1.40;;;16.40;66.60;;;;;;3567780;40;20040;-70
2021/06/16 05:11:24;;;;;;;2.83;1.25;;;16.50;66.70;;;;;;3579909;40;20030;-66
2021/06/16 05:13:50;;;;;;;5.20;1.50;;;16.50;66.10;;;;;;3579318;40;20064;-66
2021/06/16 05:16:16;;;;;;;4.32;1.20;;;16.60;65.40;;;;;;3579302;40;20105;-67
2021/06/16 05:18:44;;;;;;;1.65;1.10;;;16.70;64.60;;;;;;3579639;40;20062;-66
2021/06/16 05:21:10;;;;;;;2.95;1.50;;;16.80;64.50;;;;;;3579323;40;20016;-66
2021/06/16 05:23:36;;;;;;;3.60;1.38;;;17.00;64.20;;;;;;3579704;40;20115;-70
2021/06/16 05:26:02;;;;;;;3.08;1.25;;;17.10;64.00;;;;;;3578036;40;20049;-69
2021/06/16 05:28:28;;;;;;;2.10;1.30;;;17.30;64.60;;;;;;3569697;40;20737;-69
2021/06/16 05:30:55;;;;;;;3.35;1.73;;;17.40;62.20;;;;;;3578024;40;20033;-69
2021/06/16 05:33:21;;;;;;;1.48;1.10;;;17.50;62.90;;;;;;3578634;40;20028;-69
2021/06/16 05:35:47;;;;;;;5.95;1.30;;;17.60;62.70;;;;;;3579221;40;20043;-68
2021/06/16 05:38:13;;;;;;;2.83;1.38;;;17.70;63.40;;;;;;3569471;40;20036;-69
2021/06/16 05:40:39;;;;;;;2.05;1.35;;;17.80;60.90;;;;;;3579206;40;20041;-70
2021/06/16 05:43:04;;;;;;;3.30;1.33;;;17.80;61.00;;;;;;3578801;40;20035;-69
2021/06/16 05:45:30;;;;;;;5.03;1.05;;;17.90;58.90;;;;;;3578845;40;20035;-70
2021/06/16 05:47:56;;;;;;;4.03;1.45;;;18.00;60.00;;;;;;3579916;40;20032;-71
2021/06/16 05:50:22;;;;;;;1.85;1.02;;;18.10;61.00;;;;;;3579020;40;20037;-70
2021/06/16 05:52:48;;;;;;;4.53;1.75;;;18.20;61.00;;;;;;3580144;40;20028;-70
2021/06/16 05:55:14;;;;;;;2.10;1.00;;;18.30;60.20;;;;;;3579312;40;20036;-70
2021/06/16 05:57:41;;;;;;;2.83;1.77;;;18.50;58.40;;;;;;3576885;40;20048;-69
2021/06/16 06:00:08;;;;;;;2.95;1.75;;;18.60;56.10;;;;;;3579098;40;20144;-69
2021/06/16 06:02:35;;;;;;;2.15;1.00;;;18.70;56.50;;;;;;3569387;40;20044;-69
2021/06/16 06:05:02;;;;;;;1.38;0.82;;;18.80;55.50;;;;;;3578979;40;20032;-69
2021/06/16 06:07:27;;;;;;;3.25;0.95;;;19.00;56.20;;;;;;3569356;40;20025;-69
2021/06/16 06:09:53;;;;;;;3.80;1.45;;;19.10;55.40;;;;;;3579002;40;20063;-69
2021/06/16 06:12:19;;;;;;;1.88;0.82;;;19.20;54.10;;;;;;3579603;40;20396;-69
2021/06/16 06:14:45;;;;;;;4.78;1.10;;;19.30;54.40;;;;;;3569537;40;20037;-69
2021/06/16 06:17:10;;;;;;;8.55;1.30;;;19.40;54.00;;;;;;3579007;40;20028;-72
2021/06/16 06:19:36;;;;;;;2.85;0.93;;;19.50;53.00;;;;;;3568879;40;20020;-70
2021/06/16 06:22:02;;;;;;;2.47;1.23;;;19.50;53.50;;;;;;3579089;40;20036;-71
2021/06/16 06:24:29;;;;;;;2.63;0.80;;;19.60;53.70;;;;;;3578625;40;20445;-71
2021/06/16 06:26:54;;;;;;;2.80;1.00;;;19.70;53.50;;;;;;3579038;40;20036;-71
2021/06/16 06:29:22;;;;;;;7.38;2.28;;;19.90;52.80;;;;;;3578979;40;20063;-70
2021/06/16 06:31:47;;;;;;;2.92;1.05;;;20.00;52.70;;;;;;3578519;40;20029;-71
2021/06/16 06:34:13;;;;;;;6.13;1.75;;;20.10;51.90;;;;;;3578312;40;20286;-71
2021/06/16 06:36:39;;;;;;;2.92;1.08;;;20.20;52.40;;;;;;3576529;40;20352;-70
2021/06/16 06:39:05;;;;;;;2.75;1.20;;;20.30;51.60;;;;;;3579553;40;20732;-71
2021/06/16 06:41:30;;;;;;;2.75;1.17;;;20.40;52.40;;;;;;3578584;40;20040;-71
2021/06/16 06:43:56;;;;;;;3.33;1.20;;;20.40;51.40;;;;;;3578892;40;20045;-73
2021/06/16 06:46:22;;;;;;;2.83;1.20;;;20.50;50.60;;;;;;3579091;40;20286;-74
2021/06/16 06:48:47;;;;;;;4.05;1.30;;;20.60;51.40;;;;;;3578805;40;20662;-68
2021/06/16 06:51:13;;;;;;;3.05;1.00;;;20.70;51.30;;;;;;3577804;40;20033;-66
2021/06/16 06:53:39;;;;;;;3.78;1.30;;;20.70;51.30;;;;;;3577803;40;20017;-68
2021/06/16 06:56:05;;;;;;;2.33;0.90;;;20.80;50.40;;;;;;3575597;40;20028;-70
2021/06/16 06:58:31;;;;;;;2.08;0.90;;;20.90;50.70;;;;;;3578297;40;20042;-68
2021/06/16 07:00:56;;;;;;;5.53;1.20;;;21.10;50.60;;;;;;3566253;40;20040;-68
2021/06/16 07:03:22;;;;;;;2.40;1.25;;;21.10;50.40;;;;;;3569094;40;20036;-72
2021/06/16 07:05:48;;;;;;;3.03;1.90;;;21.30;50.80;;;;;;3568611;40;20730;-70
2021/06/16 07:08:14;;;;;;;2.72;1.25;;;21.40;50.30;;;;;;3568442;40;20032;-70
2021/06/16 07:10:39;;;;;;;5.00;1.50;;;21.50;50.60;;;;;;3578189;40;20025;-70
2021/06/16 07:13:05;;;;;;;12.45;2.03;;;21.60;50.80;;;;;;3578681;40;20064;-69
2021/06/16 07:15:31;;;;;;;6.28;1.33;;;21.70;50.60;;;;;;3570458;40;20662;-70
2021/06/16 07:17:57;;;;;;;3.63;1.10;;;21.80;49.70;;;;;;3580096;40;20029;-71
2021/06/16 08:03:42;;;;;;;4.63;1.25;;;21.30;54.50;;;;;;3613490;39;20357;-72
2021/06/16 08:06:08;;;;;;;6.07;1.50;;;21.50;54.70;;;;;;3617265;39;20134;-71
2021/06/16 08:08:33;;;;;;;5.22;1.30;;;21.80;53.90;;;;;;3616469;39;20253;-71
2021/06/16 08:11:01;;;;;;;5.93;1.45;;;22.20;52.90;;;;;;3617712;39;20042;-71
2021/06/16 08:13:27;;;;;;;6.93;1.63;;;22.60;52.20;;;;;;3615189;39;20131;-71
2021/06/16 08:15:53;;;;;;;2.70;1.30;;;22.90;50.80;;;;;;3615105;39;20715;-72
2021/06/16 08:18:18;;;;;;;2.90;1.35;;;23.10;50.20;;;;;;3609998;39;20128;-70
2021/06/16 08:20:44;;;;;;;3.83;1.40;;;23.40;49.50;;;;;;3614474;39;20156;-69
2021/06/16 08:23:10;;;;;;;3.88;1.67;;;23.60;49.70;;;;;;3617249;39;20026;-67
2021/06/16 08:25:36;;;;;;;6.55;1.60;;;23.70;49.40;;;;;;3615049;39;20046;-70
2021/06/16 08:28:03;;;;;;;2.47;1.30;;;23.90;48.60;;;;;;3614113;39;20035;-69
2021/06/16 08:30:29;;;;;;;1.60;1.20;;;24.00;48.30;;;;;;3616979;39;20051;-70
2021/06/16 08:32:55;;;;;;;2.92;1.25;;;24.00;48.40;;;;;;3613394;39;20031;-69
2021/06/16 08:35:20;;;;;;;4.30;1.45;;;24.20;48.50;;;;;;3613612;39;20043;-69
2021/06/16 08:37:47;;;;;;;3.55;1.55;;;24.30;48.00;;;;;;3616440;39;20026;-70
2021/06/16 08:40:15;;;;;;;4.10;1.48;;;24.30;47.80;;;;;;3614765;39;20100;-72
2021/06/16 08:42:42;;;;;;;5.30;1.60;;;24.40;47.70;;;;;;3615147;39;20623;-73
2021/06/16 08:45:09;;;;;;;6.82;1.60;;;24.60;47.20;;;;;;3615903;39;20046;-73
2021/06/16 08:47:35;;;;;;;3.78;2.08;;;24.70;47.40;;;;;;3611720;39;20047;-73
2021/06/16 08:50:09;;;;;;;3.00;1.42;;;24.80;47.00;;;;;;3608591;39;20136;-71
2021/06/16 08:52:35;;;;;;;4.75;1.67;;;24.80;46.60;;;;;;3613619;39;20075;-74
2021/06/16 08:55:10;;;;;;;3.17;1.40;;;24.90;46.80;;;;;;3614208;39;20453;-74
2021/06/16 08:57:37;;;;;;;7.70;2.15;;;24.90;46.20;;;;;;3606424;39;20107;-75
2021/06/16 09:00:07;;;;;;;2.83;1.30;;;24.90;46.90;;;;;;3614309;39;20047;-75
2021/06/16 09:02:34;;;;;;;3.90;1.40;;;25.00;46.50;;;;;;3613997;39;20038;-76
2021/06/16 09:04:59;;;;;;;2.72;1.60;;;25.10;46.30;;;;;;3611934;39;20045;-75
2021/06/16 09:07:27;;;;;;;4.18;1.17;;;25.10;46.40;;;;;;3613915;39;20015;-76
2021/06/16 09:10:08;;;;;;;5.72;1.55;;;25.20;45.90;;;;;;3615892;39;20042;-73
2021/06/16 09:12:36;;;;;;;2.33;1.40;;;25.30;46.60;;;;;;3615499;39;20034;-79
2021/06/16 09:15:08;;;;;;;3.72;1.30;;;25.50;44.90;;;;;;3607301;39;20051;-76
2021/06/16 09:17:34;;;;;;;1.88;1.20;;;25.50;44.70;;;;;;3607514;39;20112;-73
2021/06/16 09:20:00;;;;;;;2.58;1.55;;;25.50;44.00;;;;;;3608487;39;20039;-80
2021/06/16 09:22:32;;;;;;;5.82;1.33;;;25.40;43.80;;;;;;3608222;39;20086;-77
2021/06/16 09:25:00;;;;;;;3.97;1.52;;;25.30;44.80;;;;;;3607037;39;20082;-70
2021/06/16 09:27:43;;;;;;;2.70;1.60;;;25.40;44.80;;;;;;3606981;39;20172;-75
2021/06/16 09:30:18;;;;;;;3.58;1.33;;;25.50;42.60;;;;;;3605269;39;20476;-76
2021/06/16 09:32:44;;;;;;;2.75;1.52;;;25.60;43.10;;;;;;3603096;39;20039;-75
2021/06/16 09:35:29;;;;;;;7.75;1.55;;;25.60;43.50;;;;;;3606487;39;20031;-76
2021/06/16 09:37:57;;;;;;;4.50;1.45;;;25.60;44.00;;;;;;3601425;39;20102;-72
2021/06/16 09:40:34;;;;;;;1.85;1.25;;;25.70;44.00;;;;;;3605143;39;20075;-69
2021/06/16 09:43:06;;;;;;;10.23;1.85;;;25.70;44.00;;;;;;3602123;39;20745;-66
2021/06/16 09:45:34;;;;;;;2.25;1.35;;;25.80;43.20;;;;;;3600725;39;20051;-68
2021/06/16 09:48:19;;;;;;;4.63;1.60;;;25.80;43.20;;;;;;3604984;39;20035;-72
2021/06/16 09:50:46;;;;;;;4.73;1.40;;;25.90;43.10;;;;;;3609295;39;20757;-70
2021/06/16 09:53:12;;;;;;;2.47;1.45;;;25.90;43.10;;;;;;3607614;39;20371;-70
2021/06/16 09:55:37;;;;;;;2.42;1.52;;;26.00;42.20;;;;;;3606772;39;20031;-69
2021/06/16 09:58:08;;;;;;;5.18;1.70;;;26.00;42.20;;;;;;3602661;39;20621;-70
2021/06/16 10:00:52;;;;;;;4.75;1.70;;;26.00;42.40;;;;;;3605912;39;20032;-69
2021/06/16 10:03:23;;;;;;;3.30;1.45;;;26.00;42.90;;;;;;3602680;39;20039;-70
2021/06/16 10:06:09;;;;;;;2.35;1.27;;;26.10;42.50;;;;;;3607202;39;20141;-73
2021/06/16 10:08:35;;;;;;;;;;;26.00;41.60;;;;;;3601998;39;20075;-69
2021/06/16 10:11:02;;;;;;;3.45;1.60;;;25.90;41.80;;;;;;3605031;39;19935;-71
2021/06/16 10:13:28;;;;;;;2.22;1.20;;;25.90;42.20;;;;;;3607594;39;20028;-73
2021/06/16 10:15:55;;;;;;;2.20;1.48;;;25.80;41.60;;;;;;3602153;39;20031;-63
2021/06/16 10:18:23;;;;;;;2.78;1.27;;;25.80;42.40;;;;;;3606715;39;20127;-67
2021/06/16 10:20:51;;;;;;;3.95;1.52;;;25.90;42.40;;;;;;3607919;39;20043;-78
2021/06/16 10:23:18;;;;;;;4.78;1.33;;;26.00;43.10;;;;;;3606227;39;20484;-71
2021/06/16 10:25:45;;;;;;;2.08;1.42;;;26.20;42.20;;;;;;3604704;39;20626;-77
2021/06/16 10:28:15;;;;;;;5.30;1.45;;;26.20;42.40;;;;;;3604397;39;20027;-72
2021/06/16 10:30:43;;;;;;;2.42;1.45;;;26.20;42.20;;;;;;3603776;39;20028;-77
2021/06/16 10:33:30;;;;;;;3.38;1.27;;;26.20;41.70;;;;;;3608768;39;20104;-79
2021/06/16 10:36:16;;;;;;;2.45;1.30;;;26.30;42.20;;;;;;3604158;39;20087;-73
2021/06/16 10:39:04;;;;;;;;;;;26.20;42.20;;;;;;3608294;39;20120;-70
2021/06/16 10:41:44;;;;;;;3.60;1.77;;;26.30;41.80;;;;;;3599289;39;19974;-75
2021/06/16 10:44:12;;;;;;;4.35;1.70;;;26.30;41.40;;;;;;3603920;39;20024;-65
2021/06/16 10:46:57;;;;;;;4.45;1.48;;;26.30;41.80;;;;;;3608223;39;20023;-65
2021/06/16 10:52:09;;;;;;;2.80;1.40;;;26.50;41.60;;;;;;3603859;39;20124;-73
2021/06/16 10:54:35;;;;;;;2.42;1.50;;;26.90;40.80;;;;;;3604875;39;20055;-74
2021/06/16 10:57:11;;;;;;;4.20;1.88;;;27.40;39.70;;;;;;3607604;39;20132;-72
2021/06/16 10:59:42;;;;;;;5.60;1.88;;;27.40;39.90;;;;;;3606381;39;20024;-72
2021/06/16 11:02:09;;;;;;;3.92;1.60;;;27.20;41.00;;;;;;3604241;39;20619;-71
2021/06/16 11:04:37;;;;;;;2.90;1.33;;;27.00;40.00;;;;;;3602882;39;20804;-72
2021/06/16 11:07:04;;;;;;;7.38;1.60;;;27.00;41.20;;;;;;3606922;39;20031;-73
2021/06/16 11:09:53;;;;;;;2.75;1.58;;;26.90;40.80;;;;;;3608598;39;20160;-72
2021/06/16 11:12:31;;;;;;;3.50;1.40;;;26.90;41.30;;;;;;3606005;39;20035;-72
2021/06/16 11:15:02;;;;;;;7.13;1.60;;;26.80;40.60;;;;;;3606498;39;20207;-73
2021/06/16 11:17:34;;;;;;;4.18;1.27;;;26.80;40.90;;;;;;3608783;39;20035;-73
2021/06/16 11:20:08;;;;;;;2.97;1.60;;;26.80;41.30;;;;;;3605406;39;20842;-73
2021/06/16 11:22:38;;;;;;;3.35;1.58;;;26.80;40.80;;;;;;3601985;39;20116;-73
2021/06/16 11:25:18;;;;;;;3.83;1.45;;;26.90;41.00;;;;;;3604837;39;20566;-73
2021/06/16 11:27:51;;;;;;;3.15;1.70;;;27.00;40.50;;;;;;3606052;39;20734;-72
2021/06/16 11:30:37;;;;;;;2.55;1.48;;;26.90;40.30;;;;;;3599922;39;20065;-73
2021/06/16 11:33:15;;;;;;;2.63;1.35;;;26.90;40.80;;;;;;3606279;39;20035;-73
2021/06/16 11:35:52;;;;;;;2.92;1.30;;;27.00;41.50;;;;;;3607478;39;20032;-73
2021/06/16 11:38:21;;;;;;;3.33;1.42;;;27.10;40.70;;;;;;3603874;39;20023;-73
2021/06/16 11:40:54;;;;;;;6.82;1.50;;;27.20;40.70;;;;;;3603301;39;20305;-74
2021/06/16 11:43:32;;;;;;;1.88;1.27;;;27.30;39.90;;;;;;3602155;39;20034;-73
2021/06/16 11:46:30;;;;;;;4.00;1.60;;;27.10;39.80;;;;;;3606217;39;20027;-80
2021/06/16 11:49:09;;;;;;;2.53;1.30;;;27.10;40.00;;;;;;3605981;39;20419;-65
2021/06/16 11:51:44;;;;;;;5.10;1.52;;;27.10;40.10;;;;;;3604142;39;20024;-75
2021/06/16 11:54:22;;;;;;;4.17;1.77;;;27.10;40.60;;;;;;3604932;39;20038;-71
2021/06/16 11:57:19;;;;;;;3.40;1.35;;;27.20;40.80;;;;;;3604795;39;20031;-64
2021/06/16 11:59:46;;;;;;;3.55;1.27;;;27.40;40.70;;;;;;3601200;39;20423;-76
2021/06/16 12:02:23;;;;;;;5.57;1.75;;;27.50;39.60;;;;;;3604697;39;20042;-74
2021/06/16 12:04:54;;;;;;;4.28;1.50;;;27.30;39.50;;;;;;3601554;39;20039;-67
2021/06/16 12:07:28;;;;;;;2.97;1.50;;;27.40;40.20;;;;;;3603814;39;20050;-75
2021/06/16 12:09:58;;;;;;;3.58;1.48;;;27.40;40.40;;;;;;3606879;39;20039;-75
2021/06/16 12:12:24;;;;;;;2.67;1.58;;;27.50;39.70;;;;;;3599935;39;20035;-74
2021/06/16 12:15:14;;;;;;;3.72;1.63;;;27.50;39.90;;;;;;3605005;39;20042;-76
2021/06/16 12:17:59;;;;;;;2.70;1.45;;;27.60;40.10;;;;;;3607083;39;20095;-74
2021/06/16 12:20:27;;;;;;;1.83;1.40;;;27.60;40.40;;;;;;3603689;39;20084;-76
2021/06/16 12:22:53;;;;;;;1.77;1.30;;;27.70;39.90;;;;;;3605182;39;20069;-73
2021/06/16 12:25:23;;;;;;;4.55;1.77;;;27.80;39.40;;;;;;3602978;39;20035;-75
2021/06/16 12:27:49;;;;;;;3.97;1.58;;;27.90;39.50;;;;;;3606226;39;20393;-71
2021/06/16 12:30:20;;;;;;;2.95;1.55;;;28.10;39.90;;;;;;3607906;39;20038;-74
2021/06/16 12:33:21;;;;;;;4.05;1.67;;;28.10;39.80;;;;;;3607401;39;20039;-72
2021/06/16 12:35:56;;;;;;;1.83;1.33;;;28.20;39.30;;;;;;3605530;39;20043;-73
2021/06/16 12:38:42;;;;;;;4.78;1.70;;;28.30;39.50;;;;;;3602377;39;20398;-74
2021/06/16 12:41:33;;;;;;;4.80;1.65;;;28.40;39.90;;;;;;3606827;39;20730;-74
2021/06/16 12:44:20;;;;;;;2.63;1.50;;;28.50;39.70;;;;;;3608849;39;20051;-70
2021/06/16 12:46:52;;;;;;;4.30;1.80;;;28.60;39.10;;;;;;3605271;39;20039;-74
2021/06/16 12:49:18;;;;;;;1.85;1.33;;;28.50;39.30;;;;;;3601060;39;20140;-73
2021/06/16 12:52:08;;;;;;;2.22;1.50;;;28.60;39.10;;;;;;3604638;39;20063;-74
2021/06/16 12:54:39;;;;;;;2.80;1.75;;;28.60;38.60;;;;;;3607686;39;20124;-74
2021/06/16 12:57:12;;;;;;;4.60;1.75;;;28.50;39.60;;;;;;3607209;39;20456;-74
2021/06/16 12:59:44;;;;;;;3.03;1.50;;;28.40;38.80;;;;;;3605474;39;20043;-73
2021/06/16 13:02:11;;;;;;;3.10;1.88;;;28.40;38.90;;;;;;3610054;39;20460;-74
2021/06/16 13:05:00;;;;;;;4.20;1.90;;;28.30;38.90;;;;;;3607243;39;20028;-73
2021/06/16 13:07:45;;;;;;;2.70;1.95;;;28.10;39.00;;;;;;3607116;39;20179;-74
2021/06/16 13:10:15;;;;;;;2.83;1.70;;;28.10;40.30;;;;;;3606374;39;20034;-74
2021/06/16 13:12:57;;;;;;;2.55;1.80;;;28.10;40.30;;;;;;3605475;39;20028;-73
2021/06/16 13:15:25;;;;;;;2.65;1.75;;;28.20;40.00;;;;;;3602317;39;20040;-74
2021/06/16 13:17:53;;;;;;;4.63;1.83;;;28.10;39.30;;;;;;3606007;39;20047;-74
2021/06/16 13:20:38;;;;;;;3.72;1.52;;;28.30;40.10;;;;;;3608966;39;20035;-72
2021/06/16 13:23:13;;;;;;;3.13;1.98;;;28.40;39.80;;;;;;3608405;39;20039;-69
2021/06/16 13:25:42;;;;;;;2.85;1.80;;;28.50;39.90;;;;;;3608205;39;20047;-66
2021/06/16 13:28:19;;;;;;;3.35;2.00;;;28.50;40.00;;;;;;3609049;39;20033;-68
2021/06/16 13:30:45;;;;;;;3.75;1.77;;;28.40;39.50;;;;;;3604568;39;20771;-69
2021/06/16 13:33:11;;;;;;;2.65;1.95;;;28.40;39.30;;;;;;3605376;39;20031;-69
2021/06/16 13:35:38;;;;;;;2.85;1.90;;;28.40;40.00;;;;;;3606120;39;20046;-70
2021/06/16 13:38:04;;;;;;;2.90;1.80;;;28.50;40.10;;;;;;3606536;39;20067;-69
2021/06/16 13:40:30;;;;;;;3.95;2.08;;;28.50;39.70;;;;;;3605781;39;20031;-69
2021/06/16 13:42:59;;;;;;;4.32;2.08;;;28.50;40.20;;;;;;3608341;39;20058;-68
2021/06/16 13:45:29;;;;;;;2.45;2.17;;;28.30;40.20;;;;;;3601730;39;20039;-69